createdAt,value
2019-05-21T00:01:04.243Z,93.00
2019-05-21T00:03:32.080Z,93.10
2019-05-21T00:05:59.973Z,93.10
2019-05-21T00:08:27.858Z,93.30
2019-05-21T00:11:15.139Z,93.50
2019-05-21T00:13:42.962Z,93.20
2019-05-21T00:16:10.914Z,93.40
2019-05-21T00:18:38.816Z,93.50
2019-05-21T00:21:06.695Z,93.60
2019-05-21T00:23:34.531Z,93.30
2019-05-21T00:26:02.449Z,93.20
2019-05-21T00:28:34.838Z,93.00
2019-05-21T00:31:20.675Z,93.00
2019-05-21T00:34:06.942Z,93.00
2019-05-21T00:36:54.795Z,92.80
2019-05-21T00:39:40.803Z,92.50
2019-05-21T00:42:09.362Z,92.40
2019-05-21T00:44:38.826Z,92.40
2019-05-21T00:47:07.417Z,92.20
2019-05-21T00:49:35.304Z,92.60
2019-05-21T00:52:08.432Z,92.60
2019-05-21T00:54:32.909Z,93.00
2019-05-21T00:57:00.868Z,92.60
2019-05-21T00:59:28.790Z,92.70
2019-05-21T01:01:56.650Z,92.60
2019-05-21T01:04:24.544Z,92.80
2019-05-21T01:06:52.434Z,92.40
2019-05-21T01:09:20.319Z,92.60
2019-05-21T01:11:48.216Z,92.60
2019-05-21T01:14:16.199Z,92.70
2019-05-21T01:16:44.189Z,92.30
2019-05-21T01:19:12.112Z,92.70
2019-05-21T01:21:40.035Z,92.80
2019-05-21T01:24:07.961Z,92.60
2019-05-21T01:26:35.862Z,92.70
2019-05-21T01:29:03.868Z,93.20
2019-05-21T01:31:31.736Z,92.50
2019-05-21T01:33:59.642Z,93.00
2019-05-21T01:36:27.536Z,92.50
2019-05-21T01:38:55.363Z,92.90
2019-05-21T01:41:23.247Z,93.50
2019-05-21T01:43:51.140Z,93.30
2019-05-21T01:46:19.043Z,93.10
2019-05-21T01:48:46.931Z,93.50
2019-05-21T01:51:14.822Z,93.50
2019-05-21T01:53:42.721Z,93.40
2019-05-21T01:56:10.710Z,94.00
2019-05-21T01:58:38.667Z,95.10
2019-05-21T02:01:06.546Z,95.00
2019-05-21T02:03:34.565Z,94.80
2019-05-21T02:06:02.448Z,94.90
2019-05-21T02:08:30.265Z,95.00
2019-05-21T02:10:58.218Z,94.90
2019-05-21T02:13:26.170Z,94.90
2019-05-21T02:15:54.131Z,94.80
2019-05-21T02:18:22.015Z,94.90
2019-05-21T02:20:49.907Z,94.70
2019-05-21T02:23:17.860Z,94.50
2019-05-21T02:25:45.810Z,94.50
2019-05-21T02:28:13.650Z,95.00
2019-05-21T02:30:41.507Z,95.30
2019-05-21T02:33:09.432Z,95.30
2019-05-21T02:35:52.878Z,95.50
2019-05-21T02:38:06.877Z,95.60
2019-05-21T02:40:34.751Z,96.10
2019-05-21T02:43:02.573Z,96.00
2019-05-21T02:45:30.501Z,95.10
2019-05-21T02:47:58.468Z,95.60
2019-05-21T02:50:26.283Z,95.80
2019-05-21T02:52:54.239Z,95.50
2019-05-21T02:55:22.140Z,95.10
2019-05-21T02:57:49.958Z,95.10
2019-05-21T03:00:38.857Z,95.10
2019-05-21T03:03:10.490Z,94.70
2019-05-21T03:05:38.307Z,93.90
2019-05-21T03:08:06.295Z,93.70
2019-05-21T03:10:34.143Z,93.50
2019-05-21T03:13:02.134Z,93.30
2019-05-21T03:15:29.979Z,93.00
2019-05-21T03:17:57.834Z,93.10
2019-05-21T03:20:25.914Z,92.70
2019-05-21T03:22:53.745Z,92.50
2019-05-21T03:25:21.636Z,91.70
2019-05-21T03:27:49.465Z,91.90
2019-05-21T03:30:18.811Z,92.40
2019-05-21T03:32:46.820Z,92.10
2019-05-21T03:35:14.811Z,92.00
2019-05-21T03:37:42.699Z,91.60
2019-05-21T03:40:10.783Z,91.40
2019-05-21T03:42:38.620Z,91.50
2019-05-21T03:45:08.106Z,91.40
2019-05-21T03:47:36.305Z,91.00
2019-05-21T03:50:07.584Z,91.30
2019-05-21T03:52:35.472Z,91.00
2019-05-21T03:55:03.671Z,91.10
2019-05-21T03:57:31.530Z,91.00
2019-05-21T03:59:59.415Z,90.40
2019-05-21T04:02:27.399Z,91.10
2019-05-21T04:04:55.283Z,90.20
2019-05-21T04:07:23.183Z,90.70
2019-05-21T04:09:51.080Z,90.20
2019-05-21T04:12:19.057Z,90.30
2019-05-21T04:14:51.360Z,88.40
2019-05-21T04:17:37.153Z,88.10
2019-05-21T04:20:06.654Z,88.40
2019-05-21T04:22:36.142Z,87.50
2019-05-21T04:25:05.038Z,87.30
2019-05-21T04:27:32.856Z,85.90
2019-05-21T04:30:00.860Z,86.60
2019-05-21T04:32:28.683Z,86.70
2019-05-21T04:34:56.556Z,86.00
2019-05-21T04:37:24.377Z,85.00
2019-05-21T04:39:52.222Z,83.40
2019-05-21T04:42:20.173Z,84.30
2019-05-21T04:44:48.056Z,83.60
2019-05-21T04:47:15.987Z,83.10
2019-05-21T04:49:44.805Z,82.50
2019-05-21T04:52:12.734Z,81.80
2019-05-21T04:54:40.628Z,80.00
2019-05-21T04:57:08.519Z,76.20
2019-05-21T04:59:36.416Z,74.20
2019-05-21T05:02:06.230Z,73.10
2019-05-21T05:04:34.144Z,70.10
2019-05-21T05:07:01.983Z,67.20
2019-05-21T05:09:29.870Z,66.50
2019-05-21T05:11:57.690Z,65.30
2019-05-21T05:14:25.512Z,65.30
2019-05-21T05:16:53.385Z,65.40
2019-05-21T05:19:21.215Z,64.70
2019-05-21T05:21:52.082Z,64.90
2019-05-21T05:24:19.920Z,64.00
2019-05-21T05:26:47.804Z,66.10
2019-05-21T05:29:15.698Z,65.50
2019-05-21T05:31:43.608Z,66.90
2019-05-21T05:34:11.494Z,65.70
2019-05-21T05:36:39.440Z,64.80
2019-05-21T05:39:07.728Z,65.40
2019-05-21T05:41:35.578Z,66.10
2019-05-21T05:44:03.761Z,66.20
2019-05-21T05:46:31.646Z,67.90
2019-05-21T05:49:03.891Z,67.30
2019-05-21T05:51:31.856Z,66.80
2019-05-21T05:53:59.745Z,68.50
2019-05-21T05:56:28.643Z,67.80
2019-05-21T05:58:56.524Z,69.20
2019-05-21T06:01:25.398Z,68.00
2019-05-21T06:03:53.315Z,69.20
2019-05-21T06:06:21.235Z,68.30
2019-05-21T06:08:49.223Z,69.10
2019-05-21T06:11:17.112Z,70.90
2019-05-21T06:13:45.013Z,70.80
2019-05-21T06:16:12.902Z,70.50
2019-05-21T06:18:40.832Z,69.20
2019-05-21T06:21:08.651Z,68.00
2019-05-21T06:23:36.552Z,67.10
2019-05-21T06:26:05.013Z,68.90
2019-05-21T06:28:32.907Z,69.30
2019-05-21T06:31:00.867Z,69.30
2019-05-21T06:33:28.804Z,68.50
2019-05-21T06:35:56.730Z,68.60
2019-05-21T06:38:24.631Z,69.20
2019-05-21T06:40:52.459Z,67.60
2019-05-21T06:43:20.363Z,68.30
2019-05-21T06:45:48.181Z,69.50
2019-05-21T06:48:16.216Z,67.10
2019-05-21T06:50:44.189Z,65.50
2019-05-21T06:53:12.079Z,65.10
2019-05-21T06:55:39.971Z,65.40
2019-05-21T06:58:07.855Z,66.20
2019-05-21T07:00:35.749Z,65.10
2019-05-21T07:03:03.697Z,67.00
2019-05-21T07:05:31.689Z,63.90
2019-05-21T07:07:59.620Z,63.10
2019-05-21T07:10:27.590Z,62.00
2019-05-21T07:12:55.488Z,61.40
2019-05-21T07:15:23.575Z,59.70
2019-05-21T07:17:51.518Z,58.20
2019-05-21T07:20:19.572Z,58.50
2019-05-21T07:22:47.574Z,58.60
2019-05-21T07:25:16.159Z,58.00
2019-05-21T07:27:44.244Z,58.80
2019-05-21T07:30:12.226Z,59.10
2019-05-21T07:32:40.320Z,58.70
2019-05-21T07:35:08.411Z,56.90
2019-05-21T07:37:36.394Z,55.80
2019-05-21T07:40:05.161Z,55.10
2019-05-21T07:42:33.046Z,56.60
2019-05-21T07:45:00.941Z,56.90
2019-05-21T07:47:28.833Z,57.70
2019-05-21T07:49:56.662Z,60.00
2019-05-21T07:52:24.475Z,58.50
2019-05-21T07:54:52.370Z,57.90
2019-05-21T07:57:20.270Z,57.90
2019-05-21T07:59:48.160Z,58.20
2019-05-21T08:02:16.045Z,58.30
2019-05-21T08:04:43.939Z,57.50
2019-05-21T08:07:11.828Z,58.40
2019-05-21T08:09:39.659Z,57.40
2019-05-21T08:12:27.854Z,58.90
2019-05-21T08:14:37.176Z,57.00
2019-05-21T08:17:05.079Z,58.20
2019-05-21T08:19:33.089Z,58.90
2019-05-21T08:22:01.022Z,57.70
2019-05-21T08:24:28.912Z,57.10
2019-05-21T08:26:56.804Z,58.40
2019-05-21T08:29:24.625Z,58.10
2019-05-21T08:31:52.524Z,58.50
2019-05-21T08:34:20.391Z,58.50
2019-05-21T08:36:48.240Z,56.90
2019-05-21T08:39:28.276Z,57.50
2019-05-21T08:41:45.706Z,57.10
2019-05-21T08:44:13.616Z,57.40
2019-05-21T08:46:41.487Z,55.80
2019-05-21T08:49:09.378Z,56.60
2019-05-21T08:51:37.200Z,56.40
2019-05-21T08:54:05.082Z,57.40
2019-05-21T08:56:32.980Z,57.00
2019-05-21T08:59:00.859Z,56.90
2019-05-21T09:01:28.825Z,56.40
2019-05-21T09:03:56.787Z,56.70
2019-05-21T09:06:24.698Z,56.40
2019-05-21T09:08:52.667Z,56.60
2019-05-21T09:11:20.551Z,56.90
2019-05-21T09:13:48.447Z,56.50
2019-05-21T09:16:16.368Z,56.80
2019-05-21T09:18:44.336Z,56.90
2019-05-21T09:21:12.298Z,56.70
2019-05-21T09:23:40.198Z,56.10
2019-05-21T09:26:08.108Z,56.40
2019-05-21T09:28:36.161Z,55.90
2019-05-21T09:31:04.072Z,56.50
2019-05-21T09:33:31.964Z,56.40
2019-05-21T09:35:59.802Z,55.10
2019-05-21T09:38:27.587Z,55.00
2019-05-21T09:40:56.662Z,53.90
2019-05-21T09:43:24.552Z,55.00
2019-05-21T09:45:52.522Z,55.10
2019-05-21T09:48:20.492Z,54.80
2019-05-21T09:50:48.396Z,55.10
2019-05-21T09:53:16.284Z,55.30
2019-05-21T09:55:44.483Z,54.70
2019-05-21T09:58:14.079Z,55.20
2019-05-21T10:00:49.575Z,54.10
2019-05-21T10:03:25.318Z,54.70
2019-05-21T10:05:53.232Z,54.90
2019-05-21T10:08:21.100Z,55.00
2019-05-21T10:10:49.002Z,54.70
2019-05-21T10:13:16.883Z,56.00
2019-05-21T10:15:44.854Z,55.40
2019-05-21T10:18:12.748Z,54.10
2019-05-21T10:20:40.795Z,54.60
2019-05-21T10:23:08.616Z,52.90
2019-05-21T10:25:39.269Z,52.50
2019-05-21T10:28:07.214Z,52.00
2019-05-21T10:30:35.095Z,52.50
2019-05-21T10:33:02.987Z,53.70
2019-05-21T10:35:30.883Z,52.10
2019-05-21T10:37:58.699Z,53.00
2019-05-21T10:40:26.617Z,52.50
2019-05-21T10:52:44.793Z,53.10
2019-05-21T12:04:23.314Z,53.30
2019-05-21T12:06:51.289Z,50.20
2019-05-21T12:09:19.111Z,48.90
2019-05-21T12:11:46.958Z,48.30
2019-05-21T12:14:14.913Z,50.30
2019-05-21T12:16:42.880Z,49.00
2019-05-21T12:19:10.772Z,48.60
2019-05-21T12:21:38.668Z,47.90
2019-05-21T12:24:06.568Z,48.70
2019-05-21T12:26:34.448Z,48.80
2019-05-21T12:29:02.437Z,47.90
2019-05-21T12:31:30.312Z,49.50
2019-05-21T12:33:58.222Z,49.20
2019-05-21T12:36:26.145Z,48.90
2019-05-21T12:38:54.007Z,48.60
2019-05-21T12:41:21.907Z,49.20
2019-05-21T12:43:49.798Z,48.20
2019-05-21T12:46:17.693Z,48.40
2019-05-21T12:48:45.592Z,49.40
2019-05-21T13:47:48.705Z,49.10
2019-05-21T13:50:16.655Z,48.10
2019-05-21T13:52:44.963Z,48.20
2019-05-21T14:42:01.319Z,48.20
2019-05-21T14:44:29.356Z,48.70
2019-05-21T14:46:57.299Z,48.70
2019-05-21T14:49:25.656Z,48.40
2019-05-21T14:51:53.767Z,48.30
2019-05-21T14:54:26.860Z,49.00
2019-05-21T14:56:51.630Z,48.90
2019-05-21T14:59:19.564Z,48.70
2019-05-21T15:01:47.583Z,49.30
2019-05-21T15:04:15.526Z,49.30
2019-05-21T15:06:43.709Z,49.80
2019-05-21T15:09:11.600Z,50.00
2019-05-21T15:11:39.445Z,49.60
2019-05-21T15:14:07.409Z,48.20
2019-05-21T15:16:35.303Z,49.70
2019-05-21T15:19:03.395Z,50.90
2019-05-21T15:21:33.085Z,51.20
2019-05-21T15:24:01.591Z,51.70
2019-05-21T15:26:30.430Z,52.10
2019-05-21T15:28:58.431Z,52.40
2019-05-21T15:31:28.191Z,52.90
2019-05-21T15:33:56.067Z,53.00
2019-05-21T15:36:26.114Z,53.10
2019-05-21T15:38:54.408Z,53.20
2019-05-21T15:41:22.372Z,53.00
2019-05-21T15:43:50.351Z,52.80
2019-05-21T15:46:21.568Z,53.20
2019-05-21T15:48:49.764Z,52.80
2019-05-21T15:51:17.809Z,53.40
2019-05-21T15:53:45.768Z,53.10
2019-05-21T15:56:14.993Z,53.30
2019-05-21T15:58:43.045Z,53.50
2019-05-21T16:01:10.961Z,53.30
2019-05-21T16:03:39.379Z,52.70
2019-05-21T16:06:07.366Z,52.90
2019-05-21T16:08:35.583Z,53.20
2019-05-21T16:11:03.482Z,53.10
2019-05-21T16:13:31.464Z,53.60
2019-05-21T16:15:59.478Z,53.50
2019-05-21T16:18:27.364Z,53.30
2019-05-21T16:20:55.192Z,53.70
2019-05-21T16:23:23.071Z,53.40
2019-05-21T16:25:51.039Z,53.00
2019-05-21T16:28:20.559Z,52.40
2019-05-21T16:30:48.456Z,52.30
2019-05-21T16:33:17.754Z,52.00
2019-05-21T16:35:45.631Z,52.00
2019-05-21T16:38:13.524Z,52.80
2019-05-21T16:40:41.352Z,52.10
2019-05-21T16:43:09.167Z,52.50
2019-05-21T16:45:37.067Z,53.00
2019-05-21T16:48:04.955Z,53.30
2019-05-21T16:50:33.110Z,52.90
2019-05-21T16:53:01.081Z,53.00
2019-05-21T16:55:28.964Z,52.60
2019-05-21T16:57:56.959Z,52.50
2019-05-21T17:00:25.743Z,52.10
2019-05-21T17:02:53.562Z,52.20
2019-05-21T17:05:21.451Z,52.00
2019-05-21T17:07:49.302Z,52.20
2019-05-21T17:10:17.115Z,52.20
2019-05-21T17:12:45.044Z,52.20
2019-05-21T17:15:13.132Z,52.20
2019-05-21T17:17:41.028Z,52.20
2019-05-21T17:20:09.264Z,52.00
2019-05-21T17:22:37.156Z,52.60
2019-05-21T17:25:06.512Z,53.40
2019-05-21T17:27:34.407Z,54.10
2019-05-21T17:30:02.316Z,54.30
2019-05-21T17:32:30.197Z,54.50
2019-05-21T17:34:58.213Z,54.70
2019-05-21T17:37:26.095Z,54.60
2019-05-21T17:39:53.979Z,54.60
2019-05-21T17:42:21.866Z,54.80
2019-05-21T17:44:49.763Z,55.30
2019-05-21T17:47:17.650Z,55.70
2019-05-21T17:49:45.542Z,55.70
2019-05-21T17:52:13.440Z,56.90
2019-05-21T17:54:55.680Z,57.20
2019-05-21T17:57:10.856Z,57.60
2019-05-21T17:59:38.728Z,58.30
2019-05-21T18:02:08.385Z,57.20
2019-05-21T18:04:37.080Z,57.60
2019-05-21T18:07:05.886Z,57.70
2019-05-21T18:09:34.195Z,57.50
2019-05-21T18:12:02.152Z,56.60
2019-05-21T18:14:30.470Z,56.60
2019-05-21T18:28:08.700Z,57.90
2019-05-21T18:30:36.766Z,58.80
2019-05-21T18:33:05.422Z,59.10
2019-05-21T18:38:31.513Z,56.80
2019-05-21T18:40:59.408Z,54.40
